Time;durP1;ratioP1;P1;durP2;ratioP2;P2;SDS_P1;SDS_P2;PMS_P1;PMS_P2;Temp;Humidity;BMP_temperature;BMP_pressure;BME280_temperature;BME280_humidity;BME280_pressure;Samples;Min_cycle;Max_cycle;Signal;HPM_P1;HPM_P2
2022/01/11 00:00:30;;;;;;;1.73;0.80;;;0.70;99.90;;;;;;4977294;28;20457;-70
2022/01/11 00:02:56;;;;;;;1.00;1.00;;;0.60;99.90;;;;;;4994443;28;20604;-69
2022/01/11 00:05:28;;;;;;;3.13;2.00;;;0.70;99.90;;;;;;4994679;28;20467;-69
2022/01/11 00:07:54;;;;;;;0.97;0.97;;;0.60;99.90;;;;;;4994913;28;20441;-69
2022/01/11 00:10:27;;;;;;;0.80;0.80;;;0.60;99.90;;;;;;4994492;28;20429;-69
2022/01/11 00:12:53;;;;;;;0.60;0.60;;;0.50;99.90;;;;;;4994719;28;20956;-69
2022/01/11 00:15:19;;;;;;;0.60;0.50;;;0.50;99.90;;;;;;4995058;28;20467;-69
2022/01/11 00:17:44;;;;;;;0.57;0.50;;;0.60;99.90;;;;;;4990721;28;20425;-69
2022/01/11 00:20:13;;;;;;;1.97;1.00;;;0.50;99.90;;;;;;4991925;28;20237;-69
2022/01/11 00:22:57;;;;;;;0.97;0.87;;;0.40;99.90;;;;;;4992150;28;20260;-69
2022/01/11 00:25:23;;;;;;;1.03;1.03;;;0.40;99.90;;;;;;4989696;28;20831;-69
2022/01/11 00:27:49;;;;;;;0.80;0.80;;;0.50;99.90;;;;;;4992200;28;20800;-69
2022/01/11 00:30:14;;;;;;;1.03;1.03;;;0.40;99.90;;;;;;4993927;28;20436;-69
2022/01/11 00:32:46;;;;;;;0.60;0.60;;;0.30;99.90;;;;;;4992221;28;20315;-69
2022/01/11 00:35:15;;;;;;;0.60;0.60;;;0.30;99.90;;;;;;4993814;28;20570;-69
2022/01/11 00:37:41;;;;;;;0.60;0.60;;;0.30;99.90;;;;;;4993886;28;20444;-69
2022/01/11 00:40:08;;;;;;;0.63;0.63;;;0.30;99.90;;;;;;4994241;28;20451;-69
2022/01/11 00:42:34;;;;;;;0.50;0.50;;;0.40;99.90;;;;;;4993351;28;20438;-69
2022/01/11 00:45:07;;;;;;;0.60;0.57;;;0.40;99.90;;;;;;4994303;28;20512;-69
2022/01/11 00:47:33;;;;;;;0.57;0.50;;;0.30;99.90;;;;;;4993107;28;20470;-69
2022/01/11 00:49:58;;;;;;;2.97;2.87;;;0.40;99.90;;;;;;4993499;28;20447;-70
2022/01/11 00:52:24;;;;;;;0.57;0.50;;;0.40;99.90;;;;;;4992407;28;20181;-70
2022/01/11 00:54:50;;;;;;;3.20;1.53;;;0.40;99.90;;;;;;4993820;28;20192;-69
2022/01/11 00:57:16;;;;;;;0.77;0.77;;;0.40;99.90;;;;;;4993228;28;20220;-69
2022/01/11 00:59:41;;;;;;;2.00;1.03;;;0.40;99.90;;;;;;4992317;28;20437;-69
2022/01/11 01:02:07;;;;;;;0.60;0.60;;;0.40;99.90;;;;;;4992883;28;20183;-69
2022/01/11 01:04:32;;;;;;;1.40;1.33;;;0.40;99.90;;;;;;4993386;28;20181;-69
2022/01/11 01:06:58;;;;;;;1.93;1.23;;;0.40;99.90;;;;;;4993473;28;20198;-69
2022/01/11 01:09:27;;;;;;;0.57;0.50;;;0.40;99.90;;;;;;4994125;28;20238;-69
2022/01/11 01:11:53;;;;;;;3.27;1.33;;;0.40;99.90;;;;;;4991589;28;20176;-70
2022/01/11 01:14:18;;;;;;;0.60;0.60;;;0.40;99.90;;;;;;4991922;28;20959;-69
2022/01/11 01:16:44;;;;;;;0.67;0.67;;;0.50;99.90;;;;;;4994417;28;20258;-69
2022/01/11 01:19:10;;;;;;;0.60;0.53;;;0.40;99.90;;;;;;4993197;28;20613;-69
2022/01/11 01:21:39;;;;;;;1.23;0.87;;;0.40;99.90;;;;;;4992409;28;20272;-69
2022/01/11 01:24:07;;;;;;;1.87;1.77;;;0.50;99.90;;;;;;4989033;28;20634;-69
2022/01/11 01:26:33;;;;;;;0.83;0.83;;;0.50;99.90;;;;;;4993797;28;20834;-69
2022/01/11 01:29:00;;;;;;;1.43;1.37;;;0.50;99.90;;;;;;4992680;28;20535;-68
2022/01/11 01:31:26;;;;;;;2.97;2.07;;;0.50;99.90;;;;;;4993454;28;20463;-69
2022/01/11 01:33:52;;;;;;;0.70;0.70;;;0.50;99.90;;;;;;4991928;28;20436;-69
2022/01/11 01:36:18;;;;;;;0.53;0.50;;;0.50;99.90;;;;;;4993333;28;21019;-69
2022/01/11 01:38:43;;;;;;;0.53;0.50;;;0.50;99.90;;;;;;4993211;28;20528;-69
2022/01/11 01:41:15;;;;;;;2.70;1.80;;;0.50;99.90;;;;;;4992612;28;20272;-69
2022/01/11 01:43:41;;;;;;;0.60;0.60;;;0.50;99.90;;;;;;4991411;28;20184;-69
2022/01/11 01:46:07;;;;;;;1.47;1.37;;;0.50;99.90;;;;;;4993061;28;20547;-69
2022/01/11 01:48:32;;;;;;;1.70;1.60;;;0.60;99.90;;;;;;4993397;28;20529;-69
2022/01/11 01:50:58;;;;;;;1.00;0.80;;;0.60;99.90;;;;;;4992806;28;20597;-69
2022/01/11 01:53:24;;;;;;;0.93;0.93;;;0.60;99.90;;;;;;4992218;28;20550;-69
2022/01/11 01:55:50;;;;;;;1.03;1.03;;;0.60;99.90;;;;;;4993281;28;20302;-69
2022/01/11 01:58:16;;;;;;;1.50;1.40;;;0.70;99.90;;;;;;4992679;28;20554;-69
2022/01/11 02:00:50;;;;;;;2.80;0.93;;;0.60;99.90;;;;;;4993011;28;20183;-69
2022/01/11 02:03:17;;;;;;;0.50;0.50;;;0.50;99.90;;;;;;4975623;28;20960;-69
2022/01/11 02:05:44;;;;;;;0.70;0.70;;;0.60;99.90;;;;;;4993514;28;20884;-68
2022/01/11 02:08:12;;;;;;;0.60;0.60;;;0.60;99.90;;;;;;4991866;28;20789;-69
2022/01/11 02:10:38;;;;;;;1.73;1.63;;;0.60;99.90;;;;;;4975530;28;20532;-69
2022/01/11 02:13:05;;;;;;;1.23;1.23;;;0.50;99.90;;;;;;4991630;28;20447;-69
2022/01/11 02:15:31;;;;;;;1.90;1.47;;;0.50;99.90;;;;;;4975413;28;20215;-69
2022/01/11 02:18:08;;;;;;;1.00;1.00;;;0.50;99.90;;;;;;4992646;28;20433;-68
2022/01/11 02:20:34;;;;;;;1.00;0.90;;;0.50;99.90;;;;;;4992858;28;20234;-69
2022/01/11 02:22:59;;;;;;;0.90;0.90;;;0.50;99.90;;;;;;4992281;28;20423;-69
2022/01/11 02:25:25;;;;;;;7.53;3.37;;;0.50;99.90;;;;;;4991911;28;20466;-69
2022/01/11 02:27:50;;;;;;;2.10;1.90;;;0.50;99.90;;;;;;4990344;28;20525;-69
2022/01/11 02:30:16;;;;;;;0.53;0.50;;;0.40;99.90;;;;;;4992144;28;20195;-69
2022/01/11 02:32:50;;;;;;;9.10;1.97;;;0.30;99.90;;;;;;4991200;28;20249;-69
2022/01/11 02:35:15;;;;;;;2.00;1.90;;;0.30;99.90;;;;;;4991064;28;20224;-69
2022/01/11 02:37:43;;;;;;;0.60;0.57;;;0.20;99.90;;;;;;4992034;28;20439;-69
2022/01/11 02:40:09;;;;;;;4.23;1.13;;;0.20;99.90;;;;;;4991973;28;20181;-69
2022/01/11 02:42:34;;;;;;;0.50;0.50;;;0.30;99.90;;;;;;4987219;28;20450;-69
2022/01/11 02:45:00;;;;;;;0.60;0.50;;;0.30;99.90;;;;;;4990745;28;20804;-69
2022/01/11 02:47:25;;;;;;;4.53;1.43;;;0.30;99.90;;;;;;4992736;28;20322;-69
2022/01/11 02:49:51;;;;;;;0.60;0.60;;;0.30;99.90;;;;;;4992139;28;20189;-69
2022/01/11 02:52:16;;;;;;;1.53;1.40;;;0.30;99.90;;;;;;4991814;28;20183;-69
2022/01/11 02:54:42;;;;;;;0.70;0.70;;;0.20;99.90;;;;;;4991464;28;20283;-69
2022/01/11 02:57:07;;;;;;;0.60;0.50;;;0.10;99.90;;;;;;4990835;28;20196;-68
2022/01/11 02:59:33;;;;;;;2.53;2.43;;;0.20;99.90;;;;;;4991055;28;20183;-69
2022/01/11 03:01:58;;;;;;;3.03;1.07;;;0.10;99.90;;;;;;4991784;28;20185;-69
2022/01/11 03:04:28;;;;;;;0.57;0.50;;;0.20;99.90;;;;;;4992528;28;20188;-69
2022/01/11 03:06:54;;;;;;;0.70;0.70;;;0.20;99.90;;;;;;4992208;28;20327;-69
2022/01/11 03:09:20;;;;;;;0.50;0.50;;;0.20;99.90;;;;;;4993216;28;20945;-69
2022/01/11 03:11:47;;;;;;;35.90;2.40;;;0.10;99.90;;;;;;4990625;28;20216;-69
2022/01/11 03:14:12;;;;;;;0.60;0.53;;;0.10;99.90;;;;;;4991047;28;20502;-69
2022/01/11 03:16:38;;;;;;;0.50;0.50;;;0.10;99.90;;;;;;4991398;28;20992;-69
2022/01/11 03:19:03;;;;;;;2.63;1.57;;;0.10;99.90;;;;;;4991286;28;20177;-68
2022/01/11 03:21:30;;;;;;;0.50;0.50;;;0.00;99.90;;;;;;4990798;28;20619;-69
2022/01/11 03:23:57;;;;;;;0.93;0.93;;;0.10;99.90;;;;;;4983767;28;20196;-69
2022/01/11 03:26:23;;;;;;;2.87;1.23;;;0.10;99.90;;;;;;4990803;28;20509;-69
2022/01/11 03:28:48;;;;;;;0.60;0.60;;;0.20;99.90;;;;;;4990566;28;20883;-69
2022/01/11 03:31:14;;;;;;;0.60;0.60;;;0.00;99.90;;;;;;4990952;28;20184;-68
2022/01/11 03:33:40;;;;;;;2.13;1.33;;;0.10;99.90;;;;;;4991107;28;20183;-68
2022/01/11 03:36:06;;;;;;;2.03;1.93;;;-0.10;99.90;;;;;;4991140;28;20475;-68
2022/01/11 03:38:33;;;;;;;0.57;0.50;;;0.00;99.90;;;;;;4991473;28;20176;-68
2022/01/11 03:40:59;;;;;;;2.30;1.53;;;0.00;99.90;;;;;;4986549;28;20665;-69
2022/01/11 03:43:26;;;;;;;2.03;1.83;;;-0.10;99.90;;;;;;4991917;28;20427;-69
2022/01/11 03:45:52;;;;;;;0.60;0.60;;;-0.10;99.90;;;;;;4991808;28;20199;-68
2022/01/11 03:48:18;;;;;;;1.57;1.47;;;-0.10;99.90;;;;;;4992780;28;20478;-69
2022/01/11 03:50:51;;;;;;;0.60;0.60;;;-0.10;99.90;;;;;;4991978;28;20878;-68
2022/01/11 03:53:18;;;;;;;0.53;0.50;;;-0.10;99.90;;;;;;4992033;28;20430;-68
2022/01/11 03:56:26;;;;;;;0.57;0.50;;;-0.10;99.90;;;;;;4991600;28;20470;-69
2022/01/11 03:58:34;;;;;;;0.53;0.50;;;0.00;99.90;;;;;;4981284;28;20426;-69
2022/01/11 04:00:59;;;;;;;0.60;0.50;;;-0.10;99.90;;;;;;4973583;28;20451;-69
2022/01/11 04:03:25;;;;;;;2.17;2.00;;;0.00;99.90;;;;;;4992353;28;20472;-69
2022/01/11 04:05:51;;;;;;;0.90;0.87;;;0.00;99.90;;;;;;4992185;28;20201;-69
2022/01/11 04:08:17;;;;;;;0.60;0.50;;;-0.20;99.90;;;;;;4994671;28;20431;-69
2022/01/11 04:10:42;;;;;;;2.20;2.10;;;-0.20;99.90;;;;;;4995525;28;20195;-69
2022/01/11 04:13:08;;;;;;;1.47;1.17;;;-0.10;99.90;;;;;;4995731;28;20443;-69
2022/01/11 04:15:33;;;;;;;0.57;0.50;;;-0.10;99.90;;;;;;4995570;28;20214;-69
2022/01/11 04:17:59;;;;;;;0.57;0.50;;;-0.10;99.90;;;;;;4996016;28;20177;-69
2022/01/11 04:20:25;;;;;;;0.53;0.50;;;-0.10;99.90;;;;;;4995286;28;20185;-69
2022/01/11 04:22:50;;;;;;;0.60;0.60;;;-0.10;99.90;;;;;;4988661;28;20216;-69
2022/01/11 04:25:17;;;;;;;0.97;0.97;;;0.00;99.90;;;;;;4992560;28;20200;-69
2022/01/11 04:27:43;;;;;;;0.50;0.50;;;0.00;99.90;;;;;;4988710;28;20427;-69
2022/01/11 04:30:09;;;;;;;0.97;0.97;;;-0.10;99.90;;;;;;4994942;28;20431;-69
2022/01/11 04:32:35;;;;;;;1.17;1.07;;;-0.10;99.90;;;;;;4992347;28;20203;-69
2022/01/11 04:35:01;;;;;;;0.93;0.93;;;-0.10;99.90;;;;;;4994296;28;20550;-68
2022/01/11 04:37:26;;;;;;;0.50;0.50;;;-0.20;99.90;;;;;;4994772;28;20729;-68
2022/01/11 04:39:52;;;;;;;0.50;0.50;;;-0.10;99.90;;;;;;4990041;28;20208;-68
2022/01/11 04:42:17;;;;;;;0.50;0.50;;;-0.20;99.90;;;;;;4994352;28;20666;-69
2022/01/11 04:44:43;;;;;;;0.50;0.50;;;-0.20;99.90;;;;;;4994830;28;20244;-69
2022/01/11 04:47:08;;;;;;;0.50;0.50;;;-0.20;99.90;;;;;;4994781;28;20669;-69
2022/01/11 04:49:34;;;;;;;0.60;0.60;;;-0.10;99.90;;;;;;4994794;28;20263;-68
2022/01/11 04:52:00;;;;;;;0.57;0.57;;;-0.10;99.90;;;;;;4994179;28;20185;-69
2022/01/11 04:54:26;;;;;;;0.50;0.50;;;-0.10;99.90;;;;;;4994145;28;20185;-69
2022/01/11 04:56:51;;;;;;;3.17;3.03;;;-0.10;99.90;;;;;;4994334;28;20885;-70
2022/01/11 04:59:17;;;;;;;1.30;1.27;;;-0.10;99.90;;;;;;4994379;28;20454;-69
2022/01/11 05:01:43;;;;;;;1.43;1.43;;;-0.20;99.90;;;;;;4992964;28;20222;-69
2022/01/11 05:04:08;;;;;;;0.50;0.50;;;-0.20;99.90;;;;;;4991005;28;20203;-69
2022/01/11 05:06:34;;;;;;;1.27;1.20;;;-0.20;99.90;;;;;;4994198;28;20673;-69
2022/01/11 05:09:00;;;;;;;3.93;1.03;;;-0.30;99.90;;;;;;4992916;28;20188;-69
2022/01/11 05:11:25;;;;;;;0.60;0.60;;;-0.30;99.90;;;;;;4993514;28;20451;-70
2022/01/11 05:13:51;;;;;;;1.03;0.93;;;-0.20;99.90;;;;;;4989795;28;20195;-69
2022/01/11 05:16:17;;;;;;;6.00;3.03;;;-0.20;99.90;;;;;;4993193;28;20219;-69
2022/01/11 05:18:42;;;;;;;1.63;1.53;;;-0.20;99.90;;;;;;4992594;28;20436;-69
2022/01/11 05:21:08;;;;;;;0.50;0.50;;;-0.10;99.90;;;;;;4993255;28;20180;-69
2022/01/11 05:23:34;;;;;;;0.50;0.50;;;-0.10;99.90;;;;;;4993137;28;20550;-69
2022/01/11 05:26:00;;;;;;;0.50;0.50;;;-0.10;99.90;;;;;;4990593;28;20783;-69
2022/01/11 05:28:26;;;;;;;0.50;0.50;;;0.00;99.90;;;;;;4993317;28;20247;-69
2022/01/11 05:30:52;;;;;;;0.50;0.50;;;0.00;99.90;;;;;;4992336;28;20808;-70
2022/01/11 05:33:17;;;;;;;0.93;0.93;;;0.00;99.90;;;;;;4991776;28;20522;-69
2022/01/11 05:35:43;;;;;;;0.57;0.57;;;0.10;99.90;;;;;;4993338;28;20766;-69
2022/01/11 05:38:09;;;;;;;0.60;0.60;;;0.00;99.90;;;;;;4992519;28;20654;-69
2022/01/11 05:40:34;;;;;;;0.70;0.70;;;0.00;99.90;;;;;;4974904;28;20179;-69
2022/01/11 05:43:00;;;;;;;4.10;1.73;;;0.10;99.90;;;;;;4990711;28;20448;-70
2022/01/11 05:45:26;;;;;;;0.50;0.50;;;0.10;99.90;;;;;;4992299;28;20204;-69
2022/01/11 05:47:52;;;;;;;0.50;0.50;;;0.10;99.90;;;;;;4992760;28;20192;-69
2022/01/11 05:50:19;;;;;;;2.20;1.90;;;0.20;99.90;;;;;;4992751;28;20431;-69
2022/01/11 05:52:45;;;;;;;0.60;0.60;;;0.10;99.90;;;;;;4991631;28;20441;-69
2022/01/11 05:55:12;;;;;;;0.83;0.83;;;0.10;99.90;;;;;;4974582;28;20494;-69
2022/01/11 05:57:39;;;;;;;0.70;0.70;;;0.00;99.90;;;;;;4990841;28;20436;-69
2022/01/11 06:00:07;;;;;;;4.00;1.90;;;-0.10;99.90;;;;;;4990582;28;20442;-69
2022/01/11 06:02:33;;;;;;;1.27;1.27;;;0.00;99.90;;;;;;4991877;28;22121;-69
2022/01/11 06:04:58;;;;;;;0.60;0.60;;;0.00;99.90;;;;;;4992077;28;20444;-70
2022/01/11 06:07:24;;;;;;;0.50;0.50;;;0.00;99.90;;;;;;4992522;28;20229;-69
2022/01/11 06:09:49;;;;;;;0.50;0.50;;;0.00;99.90;;;;;;4991900;28;20699;-69
2022/01/11 06:12:15;;;;;;;1.00;1.00;;;0.00;99.90;;;;;;4992173;28;20192;-68
2022/01/11 06:14:40;;;;;;;0.50;0.50;;;0.10;99.90;;;;;;4991367;28;20207;-69
2022/01/11 06:17:06;;;;;;;0.97;0.93;;;0.10;99.90;;;;;;4974434;28;20231;-69
2022/01/11 06:19:32;;;;;;;1.10;1.10;;;0.10;99.90;;;;;;4992222;28;20247;-69
2022/01/11 06:21:58;;;;;;;0.60;0.60;;;0.00;99.90;;;;;;4991748;28;20645;-68
2022/01/11 06:24:24;;;;;;;0.50;0.50;;;0.00;99.90;;;;;;4992281;28;20513;-69
2022/01/11 06:26:49;;;;;;;1.23;0.80;;;0.00;99.90;;;;;;4990635;28;20193;-70
2022/01/11 06:29:15;;;;;;;3.53;1.47;;;0.00;99.90;;;;;;4991708;28;20604;-69
2022/01/11 06:31:40;;;;;;;1.00;0.80;;;-0.10;99.90;;;;;;4991707;28;20183;-70
2022/01/11 06:34:06;;;;;;;1.90;1.80;;;-0.10;99.90;;;;;;4975097;28;20173;-69
2022/01/11 06:36:32;;;;;;;0.70;0.70;;;-0.10;99.90;;;;;;4992370;28;20222;-70
2022/01/11 06:38:57;;;;;;;0.80;0.80;;;-0.10;99.90;;;;;;4991343;28;20222;-69
2022/01/11 06:41:23;;;;;;;0.50;0.50;;;-0.20;99.90;;;;;;4991493;28;20192;-70
2022/01/11 06:43:50;;;;;;;1.83;1.73;;;-0.20;99.90;;;;;;4991236;28;20184;-70
2022/01/11 06:46:16;;;;;;;0.50;0.50;;;-0.20;99.90;;;;;;4984087;28;20255;-70
2022/01/11 06:48:41;;;;;;;1.30;1.20;;;-0.20;99.90;;;;;;4974845;28;20424;-70
2022/01/11 06:51:07;;;;;;;0.50;0.50;;;-0.20;99.90;;;;;;4992112;28;20599;-70
2022/01/11 06:53:32;;;;;;;0.50;0.50;;;-0.20;99.90;;;;;;4992347;28;20180;-70
2022/01/11 06:55:58;;;;;;;1.53;1.03;;;-0.30;99.90;;;;;;4988876;28;20220;-70
2022/01/11 06:58:24;;;;;;;1.47;1.37;;;-0.20;99.90;;;;;;4992565;28;20208;-70
2022/01/11 07:00:49;;;;;;;2.57;2.40;;;-0.20;99.90;;;;;;4991861;28;20181;-70
2022/01/11 07:03:15;;;;;;;0.83;0.83;;;-0.20;99.90;;;;;;4992084;28;20185;-70
2022/01/11 07:05:42;;;;;;;0.50;0.50;;;-0.20;99.90;;;;;;4992391;28;20197;-70
2022/01/11 07:08:08;;;;;;;0.50;0.50;;;-0.30;99.90;;;;;;4992405;28;20180;-70
2022/01/11 07:10:34;;;;;;;3.33;2.20;;;-0.30;99.90;;;;;;4991699;28;20432;-70
2022/01/11 07:12:59;;;;;;;6.23;2.60;;;-0.40;99.90;;;;;;4991673;28;20475;-70
2022/01/11 07:15:25;;;;;;;0.50;0.50;;;-0.50;99.90;;;;;;4992101;28;20216;-70
2022/01/11 07:17:50;;;;;;;0.70;0.70;;;-0.40;99.90;;;;;;4992168;28;20172;-70
2022/01/11 07:20:16;;;;;;;0.70;0.70;;;-0.40;99.90;;;;;;4992109;28;20178;-70
2022/01/11 07:22:42;;;;;;;2.13;2.03;;;-0.30;99.90;;;;;;4991214;28;20173;-69
2022/01/11 07:25:08;;;;;;;0.50;0.50;;;-0.40;99.90;;;;;;4992169;28;20885;-69
2022/01/11 07:27:34;;;;;;;0.60;0.60;;;-0.50;99.90;;;;;;4992206;28;20431;-70
2022/01/11 07:30:04;;;;;;;0.50;0.50;;;-0.50;99.90;;;;;;4991881;28;20434;-70
2022/01/11 07:32:31;;;;;;;0.87;0.87;;;-0.60;99.90;;;;;;4991774;28;20665;-71
2022/01/11 07:34:57;;;;;;;0.90;0.90;;;-0.60;99.90;;;;;;4991996;28;20517;-70
2022/01/11 07:37:23;;;;;;;0.60;0.60;;;-0.50;99.90;;;;;;4991564;28;20424;-70
2022/01/11 07:39:49;;;;;;;1.37;1.37;;;-0.50;99.90;;;;;;4991774;28;20940;-70
2022/01/11 07:42:14;;;;;;;4.63;1.07;;;-0.60;99.90;;;;;;4992667;28;20177;-70
2022/01/11 07:44:40;;;;;;;0.60;0.60;;;-0.40;99.90;;;;;;4995848;28;20177;-70
2022/01/11 07:47:06;;;;;;;0.67;0.67;;;-0.40;99.90;;;;;;4994921;28;20300;-70
2022/01/11 07:49:31;;;;;;;1.97;1.77;;;-0.50;99.90;;;;;;4995465;28;20231;-70
2022/01/11 07:51:57;;;;;;;1.33;1.30;;;-0.50;99.90;;;;;;4994920;28;20241;-70
2022/01/11 07:54:22;;;;;;;0.50;0.50;;;-0.50;99.90;;;;;;4995702;28;20183;-70
2022/01/11 07:56:48;;;;;;;0.50;0.50;;;-0.50;99.90;;;;;;4995069;28;20189;-70
2022/01/11 07:59:13;;;;;;;0.50;0.50;;;-0.40;99.90;;;;;;4995277;28;20173;-70
2022/01/11 08:01:39;;;;;;;0.50;0.50;;;-0.30;99.90;;;;;;4995165;28;20185;-70
2022/01/11 08:04:05;;;;;;;0.50;0.50;;;-0.30;99.90;;;;;;4995375;28;20177;-70
2022/01/11 08:06:33;;;;;;;1.67;1.40;;;-0.30;99.90;;;;;;4995503;28;20231;-69
2022/01/11 08:08:59;;;;;;;0.60;0.60;;;-0.30;99.90;;;;;;4994886;28;20434;-70
2022/01/11 08:11:25;;;;;;;0.70;0.70;;;-0.30;99.90;;;;;;4995101;28;20435;-70
2022/01/11 08:13:50;;;;;;;0.60;0.60;;;-0.20;99.90;;;;;;4995162;28;20431;-70
2022/01/11 08:16:16;;;;;;;0.60;0.60;;;-0.20;99.90;;;;;;4995068;28;20216;-71
2022/01/11 08:18:41;;;;;;;0.50;0.50;;;-0.30;99.90;;;;;;4994256;28;20181;-70
2022/01/11 08:21:07;;;;;;;0.50;0.50;;;-0.20;99.90;;;;;;4986233;28;20173;-70
2022/01/11 08:23:33;;;;;;;0.67;0.67;;;-0.20;99.90;;;;;;4994856;28;20177;-70
2022/01/11 08:25:59;;;;;;;0.83;0.83;;;-0.20;99.90;;;;;;4994868;28;20740;-70
2022/01/11 08:28:25;;;;;;;3.27;2.97;;;-0.20;99.90;;;;;;4995110;28;20424;-70
2022/01/11 08:30:51;;;;;;;1.13;1.10;;;-0.30;99.90;;;;;;4994981;28;20670;-70
2022/01/11 08:33:17;;;;;;;0.60;0.60;;;-0.40;99.90;;;;;;4993304;28;20515;-70
2022/01/11 08:35:43;;;;;;;0.83;0.83;;;-0.40;99.90;;;;;;4994535;28;20546;-71
2022/01/11 08:38:08;;;;;;;0.70;0.70;;;-0.50;99.90;;;;;;4994610;28;20173;-69
2022/01/11 08:40:34;;;;;;;0.80;0.80;;;-0.50;99.90;;;;;;4993704;28;20435;-70
2022/01/11 08:43:03;;;;;;;1.57;1.47;;;-0.30;99.90;;;;;;4994301;28;20169;-70
2022/01/11 08:45:28;;;;;;;0.50;0.50;;;-0.30;99.90;;;;;;4993998;28;20216;-70
2022/01/11 08:47:54;;;;;;;0.50;0.50;;;-0.40;99.90;;;;;;4987700;28;20436;-70
2022/01/11 08:50:19;;;;;;;0.73;0.73;;;-0.30;99.90;;;;;;4989016;28;20646;-71
2022/01/11 08:52:45;;;;;;;0.50;0.50;;;-0.40;99.90;;;;;;4993336;28;20177;-70
2022/01/11 08:55:11;;;;;;;0.60;0.60;;;-0.30;99.90;;;;;;4994398;28;20199;-70
2022/01/11 08:57:38;;;;;;;1.00;0.90;;;-0.30;99.90;;;;;;4994586;28;20284;-71
2022/01/11 09:00:10;;;;;;;0.50;0.50;;;-0.30;99.90;;;;;;4976270;28;20424;-70
2022/01/11 09:02:37;;;;;;;1.03;1.03;;;-0.20;99.90;;;;;;4993863;28;20417;-70
2022/01/11 09:05:03;;;;;;;0.50;0.50;;;-0.10;99.90;;;;;;4994320;28;20432;-70
2022/01/11 09:07:29;;;;;;;0.53;0.53;;;0.00;99.90;;;;;;4989739;28;20421;-70
2022/01/11 09:09:54;;;;;;;2.43;1.03;;;0.10;99.90;;;;;;4992939;28;20768;-70
2022/01/11 09:12:20;;;;;;;0.60;0.60;;;0.10;99.90;;;;;;4993730;28;20184;-70
2022/01/11 09:14:45;;;;;;;0.50;0.50;;;0.20;99.90;;;;;;4993178;28;20203;-70
2022/01/11 09:17:12;;;;;;;1.23;1.13;;;0.20;99.90;;;;;;4994030;28;20220;-70
2022/01/11 09:19:37;;;;;;;0.60;0.60;;;0.30;99.90;;;;;;4994094;28;20169;-70
2022/01/11 09:22:05;;;;;;;0.57;0.57;;;0.30;99.90;;;;;;4993740;28;20451;-70
2022/01/11 09:24:30;;;;;;;0.50;0.50;;;0.30;99.90;;;;;;4993683;28;20181;-70
2022/01/11 09:26:58;;;;;;;0.50;0.50;;;0.30;99.90;;;;;;4993829;28;20436;-71
2022/01/11 09:29:25;;;;;;;0.50;0.50;;;0.20;99.90;;;;;;4993353;28;20165;-70
2022/01/11 09:31:50;;;;;;;0.50;0.50;;;0.20;99.90;;;;;;4993353;28;20451;-70
2022/01/11 09:34:16;;;;;;;1.40;1.30;;;0.10;99.90;;;;;;4993584;28;20448;-70
2022/01/11 09:36:42;;;;;;;0.70;0.70;;;0.00;99.90;;;;;;4993433;28;20208;-69
2022/01/11 09:39:08;;;;;;;2.10;2.00;;;0.10;99.90;;;;;;4993227;28;20203;-70
2022/01/11 09:41:35;;;;;;;0.50;0.50;;;0.00;99.90;;;;;;4989222;28;20169;-70
2022/01/11 09:44:01;;;;;;;0.70;0.70;;;0.10;99.90;;;;;;4991765;28;20419;-70
2022/01/11 09:46:28;;;;;;;0.50;0.50;;;0.20;99.90;;;;;;4986641;28;20460;-70
2022/01/11 09:48:54;;;;;;;0.60;0.57;;;0.10;99.90;;;;;;4992052;28;20431;-70
2022/01/11 09:51:20;;;;;;;0.53;0.53;;;0.10;99.90;;;;;;4992991;28;20427;-69
2022/01/11 09:53:46;;;;;;;0.60;0.60;;;0.20;99.90;;;;;;4992084;28;20792;-70
2022/01/11 09:56:13;;;;;;;0.50;0.50;;;0.30;99.90;;;;;;4993114;28;20287;-70
2022/01/11 09:58:40;;;;;;;1.20;1.20;;;0.40;99.90;;;;;;4992365;28;20428;-69
2022/01/11 10:01:05;;;;;;;0.50;0.50;;;0.60;99.90;;;;;;4993007;28;20514;-70
2022/01/11 10:03:51;;;;;;;1.53;1.47;;;0.70;99.90;;;;;;4993050;28;20519;-70
2022/01/11 10:06:17;;;;;;;0.60;0.60;;;0.70;99.90;;;;;;4988642;28;20199;-70
2022/01/11 10:08:42;;;;;;;1.90;1.80;;;0.80;99.90;;;;;;4993002;28;20465;-70
2022/01/11 10:11:08;;;;;;;0.80;0.70;;;0.60;99.90;;;;;;4993183;28;20210;-70
2022/01/11 10:13:39;;;;;;;0.60;0.57;;;0.60;99.90;;;;;;4992022;28;20666;-70
2022/01/11 10:16:22;;;;;;;3.03;1.03;;;0.60;99.90;;;;;;4993021;28;20211;-70
2022/01/11 10:18:49;;;;;;;1.17;1.17;;;0.70;99.90;;;;;;4992933;28;20462;-70
2022/01/11 10:21:40;;;;;;;1.00;1.00;;;0.80;99.90;;;;;;4992922;28;20796;-70
2022/01/11 10:24:32;;;;;;;0.70;0.70;;;0.80;99.90;;;;;;4992819;28;20462;-70
2022/01/11 10:27:03;;;;;;;0.53;0.50;;;0.90;99.90;;;;;;4992360;28;20458;-70
2022/01/11 10:29:38;;;;;;;2.40;2.13;;;0.90;99.90;;;;;;4989569;28;20513;-70
2022/01/11 10:32:18;;;;;;;1.23;1.23;;;0.90;99.90;;;;;;4992689;28;20657;-70
2022/01/11 10:34:47;;;;;;;0.50;0.50;;;0.90;99.90;;;;;;4974985;28;20948;-70
2022/01/11 10:37:14;;;;;;;1.57;1.47;;;0.90;99.90;;;;;;4992944;28;20444;-70
2022/01/11 10:39:43;;;;;;;0.57;0.57;;;1.00;99.90;;;;;;4993155;28;20482;-70
2022/01/11 10:42:25;;;;;;;4.73;3.60;;;0.90;99.90;;;;;;4992742;28;20426;-69
2022/01/11 10:44:52;;;;;;;1.00;1.00;;;0.80;99.90;;;;;;4984948;28;20475;-70
2022/01/11 10:47:22;;;;;;;4.43;1.07;;;0.70;99.90;;;;;;4993050;28;20887;-70
2022/01/11 10:49:50;;;;;;;0.60;0.60;;;0.90;99.90;;;;;;4992139;28;20452;-71
2022/01/11 10:52:27;;;;;;;1.43;1.33;;;1.00;99.90;;;;;;4991579;28;20463;-70
2022/01/11 10:54:53;;;;;;;0.70;0.70;;;1.10;99.90;;;;;;4982910;28;20459;-70
2022/01/11 10:57:30;;;;;;;1.53;1.43;;;1.20;99.90;;;;;;4992660;28;20424;-70
2022/01/11 11:00:13;;;;;;;4.10;2.10;;;1.20;99.90;;;;;;4992381;28;20455;-70
2022/01/11 11:02:40;;;;;;;2.33;1.40;;;1.30;99.90;;;;;;4991997;28;20499;-70
2022/01/11 11:05:24;;;;;;;0.73;0.73;;;1.20;99.90;;;;;;4992027;28;20427;-70
2022/01/11 11:08:01;;;;;;;0.70;0.70;;;1.30;99.90;;;;;;4992122;28;20437;-69
2022/01/11 11:10:31;;;;;;;0.93;0.93;;;1.50;99.90;;;;;;4992336;28;20435;-68
2022/01/11 11:12:57;;;;;;;4.30;3.90;;;1.30;99.90;;;;;;4991636;28;20493;-68
2022/01/11 11:15:39;;;;;;;0.63;0.63;;;1.50;99.90;;;;;;4992449;28;20551;-69
2022/01/11 11:18:07;;;;;;;1.03;1.03;;;1.60;99.90;;;;;;4980652;28;20458;-69
2022/01/11 11:20:35;;;;;;;8.80;1.47;;;1.80;99.90;;;;;;4995575;28;20404;-69
2022/01/11 11:23:03;;;;;;;0.90;0.90;;;2.00;99.90;;;;;;4977640;28;20962;-69
2022/01/11 11:25:29;;;;;;;1.73;1.73;;;1.90;99.90;;;;;;4977944;28;20771;-69
2022/01/11 11:27:55;;;;;;;0.57;0.50;;;1.80;99.90;;;;;;4979369;28;20439;-69
2022/01/11 11:30:21;;;;;;;1.20;0.70;;;1.90;99.90;;;;;;4985104;28;20596;-69
2022/01/11 11:32:51;;;;;;;1.73;1.43;;;1.90;99.90;;;;;;4996135;28;20686;-69
2022/01/11 11:35:17;;;;;;;0.83;0.83;;;2.10;99.90;;;;;;4994700;28;20467;-69
2022/01/11 11:37:46;;;;;;;0.70;0.70;;;2.30;99.90;;;;;;4995361;28;20420;-70
2022/01/11 11:40:18;;;;;;;1.57;1.17;;;2.30;99.90;;;;;;5001612;28;20421;-71
2022/01/11 11:42:45;;;;;;;0.60;0.50;;;2.30;99.90;;;;;;5005960;28;20426;-71
2022/01/11 11:45:17;;;;;;;0.70;0.70;;;2.60;99.90;;;;;;4995103;28;20500;-70
2022/01/11 11:47:44;;;;;;;0.60;0.60;;;2.60;99.90;;;;;;4987167;28;20459;-70
2022/01/11 11:50:14;;;;;;;1.57;1.47;;;2.50;99.90;;;;;;4994076;28;20432;-70
2022/01/11 11:52:42;;;;;;;2.30;2.20;;;2.00;99.90;;;;;;4995540;28;20410;-69
2022/01/11 11:55:26;;;;;;;2.20;1.07;;;2.30;99.90;;;;;;4995455;28;20462;-69
2022/01/11 11:58:06;;;;;;;0.60;0.50;;;2.50;99.90;;;;;;4995472;28;20424;-69
2022/01/11 12:00:35;;;;;;;0.60;0.60;;;2.70;99.90;;;;;;4995389;28;20806;-69
2022/01/11 12:03:25;;;;;;;0.93;0.93;;;3.10;99.90;;;;;;4995554;28;20928;-69
2022/01/11 12:05:53;;;;;;;1.53;0.93;;;4.00;99.90;;;;;;4995287;28;20534;-69
2022/01/11 12:08:38;;;;;;;2.67;2.47;;;5.10;99.90;;;;;;4995451;28;20470;-69
2022/01/11 12:11:12;;;;;;;1.60;1.50;;;5.20;99.90;;;;;;4995136;28;20459;-69
2022/01/11 12:13:45;;;;;;;3.70;3.30;;;5.70;99.90;;;;;;4995028;28;20439;-68
2022/01/11 12:16:26;;;;;;;3.47;2.77;;;6.40;99.90;;;;;;4995365;28;20517;-69
2022/01/11 12:18:59;;;;;;;2.70;2.53;;;7.60;99.90;;;;;;4995298;28;20415;-69
2022/01/11 12:21:29;;;;;;;6.33;3.73;;;8.70;99.90;;;;;;4995184;28;20468;-68
2022/01/11 12:23:57;;;;;;;4.97;4.73;;;9.30;99.90;;;;;;4995007;28;20869;-69
2022/01/11 12:26:25;;;;;;;6.67;4.23;;;10.20;99.90;;;;;;4995387;28;20488;-69
2022/01/11 12:29:10;;;;;;;8.37;4.50;;;10.50;99.90;;;;;;4976665;28;20424;-69
2022/01/11 12:31:39;;;;;;;2.23;2.00;;;10.90;99.90;;;;;;4994278;28;20460;-69
2022/01/11 12:34:09;;;;;;;6.70;2.57;;;10.60;99.90;;;;;;4995069;28;20412;-69
2022/01/11 12:36:57;;;;;;;2.73;2.53;;;10.40;99.90;;;;;;4994977;28;20809;-69
2022/01/11 12:39:26;;;;;;;7.10;2.43;;;10.00;99.90;;;;;;4994247;28;20424;-69
2022/01/11 12:41:53;;;;;;;2.70;1.83;;;10.70;99.90;;;;;;4994228;28;20451;-69
2022/01/11 12:44:32;;;;;;;9.33;3.57;;;10.40;99.90;;;;;;4994909;28;20419;-69
2022/01/11 12:46:59;;;;;;;8.40;2.63;;;10.50;99.90;;;;;;4993318;28;20479;-69
2022/01/11 12:49:27;;;;;;;4.80;2.73;;;10.80;99.90;;;;;;4992349;28;20431;-69
2022/01/11 12:51:57;;;;;;;3.87;2.17;;;11.60;99.90;;;;;;4992057;28;20459;-70
2022/01/11 12:54:37;;;;;;;3.10;2.70;;;11.20;99.90;;;;;;4994704;28;20487;-70